Time;durP1;ratioP1;P1;durP2;ratioP2;P2;SDS_P1;SDS_P2;PMS_P1;PMS_P2;Temp;Humidity;BMP_temperature;BMP_pressure;BME280_temperature;BME280_humidity;BME280_pressure;Samples;Min_cycle;Max_cycle;Signal;HPM_P1;HPM_P2
2021/08/03 00:01:03;;;;;;;;;;;;;;;-142.75;63.97;77145.13;5084800;28;19962;-76
2021/08/03 00:03:29;;;;;;;;;;;;;;;-142.75;64.51;77172.69;5083493;28;19920;-78
2021/08/03 00:05:56;;;;;;;;;;;;;;;-142.75;64.91;77180.56;5082312;28;20297;-79
2021/08/03 00:08:23;;;;;;;;;;;;;;;-142.75;64.59;77133.31;5087141;28;20014;-75
2021/08/03 00:10:50;;;;;;;;;;;;;;;-142.75;64.63;77160.88;5086279;28;19917;-79
2021/08/03 00:13:15;;;;;;;;;;;;;;;-142.75;64.93;77174.66;5085970;28;19966;-78
2021/08/03 00:15:41;;;;;;;;;;;;;;;-142.75;64.96;77149.06;5079638;28;19916;-78
2021/08/03 00:18:06;;;;;;;;;;;;;;;-142.75;64.96;77156.94;5088072;28;20274;-78
2021/08/03 00:20:34;;;;;;;;;;;;;;;-142.75;64.76;77160.88;5082017;28;20393;-79
2021/08/03 00:23:00;;;;;;;;;;;;;;;-142.75;64.60;77156.94;5085433;28;19916;-78
2021/08/03 00:25:26;;;;;;;;;;;;;;;-142.75;64.34;77149.06;5084940;28;19963;-78
2021/08/03 00:27:52;;;;;;;;;;;;;;;-142.75;64.20;77143.16;5083680;28;19977;-78
2021/08/03 00:30:17;;;;;;;;;;;;;;;-142.75;64.29;77162.84;5085838;28;20304;-77
2021/08/03 00:32:43;;;;;;;;;;;;;;;-142.75;64.44;77141.19;5085133;28;19924;-79
2021/08/03 00:35:08;;;;;;;;;;;;;;;-142.75;64.47;77137.25;5074513;28;19934;-77
2021/08/03 00:37:34;;;;;;;;;;;;;;;-142.75;64.38;77153.00;5083575;28;20371;-79
2021/08/03 00:39:59;;;;;;;;;;;;;;;-142.75;64.39;77156.94;5079858;28;19978;-77
2021/08/03 00:42:24;;;;;;;;;;;;;;;-142.75;64.56;77149.06;5081416;28;19916;-78
2021/08/03 00:44:50;;;;;;;;;;;;;;;-142.75;64.94;77139.22;5082128;28;19917;-78
2021/08/03 00:47:16;;;;;;;;;;;;;;;-142.75;65.09;77141.19;5088124;28;19920;-78
2021/08/03 00:49:42;;;;;;;;;;;;;;;-142.75;65.09;77153.00;5084078;28;20007;-78
2021/08/03 00:52:11;;;;;;;;;;;;;;;-142.75;65.22;77196.31;5078361;28;20061;-78
2021/08/03 00:54:36;;;;;;;;;;;;;;;-142.75;65.46;77200.25;5079116;28;19920;-79
2021/08/03 00:57:03;;;;;;;;;;;;;;;-142.75;65.63;77188.44;5084643;28;19931;-77
2021/08/03 00:59:29;;;;;;;;;;;;;;;-142.75;65.40;77196.31;5083266;28;20405;-78
2021/08/03 01:01:54;;;;;;;;;;;;;;;-142.75;65.22;77198.28;5084503;28;19916;-78
2021/08/03 01:04:19;;;;;;;;;;;;;;;-142.75;64.84;77178.59;5083588;28;19928;-78
2021/08/03 01:06:52;;;;;;;;;;;;;;;-142.75;64.97;77188.44;5081635;28;20301;-77
2021/08/03 01:09:25;;;;;;;;;;;;;;;-142.75;65.18;77186.47;5088628;28;19978;-78
2021/08/03 01:11:59;;;;;;;;;;;;;;;-142.75;65.47;77196.31;5084679;28;19999;-79
2021/08/03 01:14:31;;;;;;;;;;;;;;;-142.75;65.79;77192.38;5078690;28;20262;-78
2021/08/03 01:16:58;;;;;;;;;;;;;;;-142.75;65.96;77200.25;5086656;28;19924;-78
2021/08/03 01:19:35;;;;;;;;;;;;;;;-142.75;65.81;77180.56;5084914;28;19916;-78
2021/08/03 01:22:12;;;;;;;;;;;;;;;-142.75;65.90;77174.66;5075854;28;19931;-79
2021/08/03 01:24:56;;;;;;;;;;;;;;;-142.75;65.99;77164.81;5082680;28;19923;-78
2021/08/03 01:27:27;;;;;;;;;;;;;;;-142.75;65.96;77166.78;5079794;28;19939;-79
2021/08/03 01:29:53;;;;;;;;;;;;;;;-142.75;66.01;77164.81;5071773;28;20050;-79
2021/08/03 01:32:25;;;;;;;;;;;;;;;-142.75;65.93;77143.16;5072315;28;19916;-79
2021/08/03 01:34:50;;;;;;;;;;;;;;;-142.75;65.88;77153.00;5076093;28;20336;-79
2021/08/03 01:37:17;;;;;;;;;;;;;;;-142.75;65.89;77135.28;5074543;28;19942;-79
2021/08/03 01:39:44;;;;;;;;;;;;;;;-142.75;65.49;77133.31;5077313;28;19920;-77
2021/08/03 01:42:10;;;;;;;;;;;;;;;-142.75;65.26;77133.31;5090342;28;19924;-78
2021/08/03 01:44:36;;;;;;;;;;;;;;;-142.75;64.83;77123.47;5087565;28;19917;-78
2021/08/03 01:47:03;;;;;;;;;;;;;;;-142.75;64.88;77121.50;5082287;28;20390;-79
2021/08/03 01:49:29;;;;;;;;;;;;;;;-142.75;65.06;77131.34;5072338;28;19921;-79
2021/08/03 01:51:55;;;;;;;;;;;;;;;-142.75;65.27;77135.28;5082509;28;19931;-79
2021/08/03 01:54:20;;;;;;;;;;;;;;;-142.75;65.23;77133.31;5074069;28;19924;-78
2021/08/03 01:56:46;;;;;;;;;;;;;;;-142.75;65.00;77117.56;5084528;28;20325;-79
2021/08/03 01:59:12;;;;;;;;;;;;;;;-142.75;64.87;77115.59;5081152;28;19963;-78
2021/08/03 02:01:38;;;;;;;;;;;;;;;-142.75;64.89;77109.69;5087489;28;19916;-78
2021/08/03 02:04:03;;;;;;;;;;;;;;;-142.75;64.90;77105.75;5084719;28;19923;-78
2021/08/03 02:06:29;;;;;;;;;;;;;;;-142.75;64.94;77117.56;5090676;28;19961;-78
2021/08/03 02:08:58;;;;;;;;;;;;;;;-142.75;64.72;77091.97;5082354;28;20415;-79
2021/08/03 02:11:24;;;;;;;;;;;;;;;-142.75;64.26;77091.97;5073526;28;19987;-79
2021/08/03 02:13:50;;;;;;;;;;;;;;;-142.75;64.63;77133.31;5079969;28;20320;-81
2021/08/03 02:16:15;;;;;;;;;;;;;;;-142.75;64.82;77145.13;5084337;28;19916;-78
2021/08/03 02:18:40;;;;;;;;;;;;;;;-142.75;65.05;77143.16;5081367;28;20339;-79
2021/08/03 02:21:06;;;;;;;;;;;;;;;-142.75;65.19;77153.00;5080022;28;19920;-78
2021/08/03 02:23:31;;;;;;;;;;;;;;;-142.75;65.18;77133.31;5081161;28;19935;-79
2021/08/03 02:25:56;;;;;;;;;;;;;;;-142.75;65.00;77149.06;5081411;28;20400;-78
2021/08/03 02:28:21;;;;;;;;;;;;;;;-142.75;65.12;77156.94;5083667;28;19921;-79
2021/08/03 02:30:49;;;;;;;;;;;;;;;-142.75;65.25;77166.78;5087547;28;19916;-78
2021/08/03 02:33:20;;;;;;;;;;;;;;;-142.75;65.32;77172.69;5072056;28;19928;-77
2021/08/03 02:35:49;;;;;;;;;;;;;;;-142.75;65.46;77172.69;5078730;28;19927;-78
2021/08/03 02:38:17;;;;;;;;;;;;;;;-142.75;65.61;77176.63;5084490;28;19917;-79
2021/08/03 02:40:43;;;;;;;;;;;;;;;-142.75;65.79;77182.53;5091773;28;19923;-78
2021/08/03 02:43:09;;;;;;;;;;;;;;;-142.75;65.83;77184.50;5091635;28;19924;-79
2021/08/03 02:45:38;;;;;;;;;;;;;;;-142.75;65.83;77192.38;5076788;28;19917;-78
2021/08/03 02:48:14;;;;;;;;;;;;;;;-142.75;65.64;77184.50;5081068;28;20369;-79
2021/08/03 02:50:42;;;;;;;;;;;;;;;-142.75;65.25;77176.63;5080929;28;20396;-78
2021/08/03 02:53:10;;;;;;;;;;;;;;;-142.75;65.34;77200.25;5079733;28;19923;-79
2021/08/03 02:55:37;;;;;;;;;;;;;;;-142.75;65.21;77206.16;5086147;28;19917;-79
2021/08/03 02:58:08;;;;;;;;;;;;;;;-142.75;65.31;77216.00;5081930;28;20337;-79
2021/08/03 03:00:36;;;;;;;;;;;;;;;-142.75;65.61;77223.88;5084332;28;22057;-78
2021/08/03 03:03:04;;;;;;;;;;;;;;;-142.75;65.71;77233.72;5083407;28;19916;-78
2021/08/03 03:05:31;;;;;;;;;;;;;;;-142.75;65.95;77239.63;5077887;28;19917;-79
2021/08/03 03:08:01;;;;;;;;;;;;;;;-142.75;66.06;77227.81;5077243;28;20386;-78
2021/08/03 03:10:27;;;;;;;;;;;;;;;-142.75;66.14;77231.75;5084813;28;19924;-80
2021/08/03 03:12:55;;;;;;;;;;;;;;;-142.75;66.33;77231.75;5096032;28;20377;-79
2021/08/03 03:15:21;;;;;;;;;;;;;;;-142.75;66.37;77223.88;5085097;28;19939;-79
2021/08/03 03:17:47;;;;;;;;;;;;;;;-142.75;66.20;77219.94;5086373;28;19923;-78
2021/08/03 03:20:13;;;;;;;;;;;;;;;-142.75;66.08;77221.91;5081436;28;19920;-79
2021/08/03 03:22:41;;;;;;;;;;;;;;;-142.75;66.25;77229.78;5083373;28;19936;-78
2021/08/03 03:25:07;;;;;;;;;;;;;;;-142.75;66.48;77261.28;5082119;28;19923;-79
2021/08/03 03:27:33;;;;;;;;;;;;;;;-142.75;66.42;77223.88;5085737;28;19917;-77
2021/08/03 03:29:59;;;;;;;;;;;;;;;-142.75;66.52;77255.38;5087122;28;19924;-78
2021/08/03 03:32:27;;;;;;;;;;;;;;;-142.75;66.50;77219.94;5085952;28;19916;-79
2021/08/03 03:34:54;;;;;;;;;;;;;;;-142.75;66.54;77231.75;5083987;28;20378;-79
2021/08/03 03:37:19;;;;;;;;;;;;;;;-142.75;66.48;77221.91;5089250;28;19970;-78
2021/08/03 03:39:45;;;;;;;;;;;;;;;-142.75;66.45;77217.97;5085490;28;19917;-79
2021/08/03 03:42:11;;;;;;;;;;;;;;;-142.75;66.70;77231.75;5077291;28;19923;-78
2021/08/03 03:44:36;;;;;;;;;;;;;;;-142.75;66.54;77212.06;5086266;28;19947;-79
2021/08/03 03:47:06;;;;;;;;;;;;;;;-142.75;66.58;77214.03;5089164;28;19935;-78
2021/08/03 03:49:41;;;;;;;;;;;;;;;-142.75;66.43;77194.34;5095770;28;19935;-78
2021/08/03 03:52:07;;;;;;;;;;;;;;;-142.75;66.24;77208.13;5084607;28;19954;-78
2021/08/03 03:54:36;;;;;;;;;;;;;;;-142.75;66.54;77214.03;5084910;28;19920;-78
2021/08/03 03:57:04;;;;;;;;;;;;;;;-142.75;66.59;77214.03;5089246;28;20438;-78
2021/08/03 03:59:30;;;;;;;;;;;;;;;-142.75;66.42;77204.19;5086997;28;19923;-79
2021/08/03 04:01:57;;;;;;;;;;;;;;;-142.75;66.22;77190.41;5078043;28;19924;-80
2021/08/03 04:04:24;;;;;;;;;;;;;;;-142.75;66.04;77208.13;5086213;28;19922;-79
2021/08/03 04:06:49;;;;;;;;;;;;;;;-142.75;65.93;77202.22;5084156;28;20358;-79
2021/08/03 04:09:23;;;;;;;;;;;;;;;-142.75;65.90;77204.19;5093098;28;19923;-79
2021/08/03 04:11:49;;;;;;;;;;;;;;;-142.75;65.79;77200.25;5082705;28;19927;-78
2021/08/03 04:14:16;;;;;;;;;;;;;;;-142.75;66.19;77231.75;5088646;28;19921;-78
2021/08/03 04:16:42;;;;;;;;;;;;;;;-142.75;66.28;77212.06;5086739;28;19916;-79
2021/08/03 04:19:07;;;;;;;;;;;;;;;-142.75;66.40;77198.28;5093043;28;19922;-79
2021/08/03 04:21:32;;;;;;;;;;;;;;;-142.75;66.39;77198.28;5079813;28;19916;-78
2021/08/03 04:23:57;;;;;;;;;;;;;;;-142.75;66.78;77192.38;5087833;28;19927;-79
2021/08/03 04:26:22;;;;;;;;;;;;;;;-142.75;66.80;77172.69;5089529;28;19920;-79
2021/08/03 04:28:47;;;;;;;;;;;;;;;-142.75;66.90;77208.13;5083162;28;19920;-78
2021/08/03 04:31:13;;;;;;;;;;;;;;;-142.75;66.77;77158.91;5078019;28;19948;-78
2021/08/03 04:33:38;;;;;;;;;;;;;;;-142.75;67.09;77200.25;5083827;28;20382;-79
2021/08/03 04:36:04;;;;;;;;;;;;;;;-142.75;66.98;77164.81;5091347;28;19916;-78
2021/08/03 04:38:29;;;;;;;;;;;;;;;-142.75;66.88;77180.56;5078885;28;19916;-77
2021/08/03 04:40:54;;;;;;;;;;;;;;;-142.75;67.18;77184.50;5074591;28;19916;-79
2021/08/03 04:43:19;;;;;;;;;;;;;;;-142.75;67.19;77174.66;5080210;28;19916;-78
2021/08/03 04:45:44;;;;;;;;;;;;;;;-142.75;67.33;77147.09;5085801;28;20315;-79
2021/08/03 04:48:12;;;;;;;;;;;;;;;-142.75;67.29;77133.31;5087942;28;20433;-78
2021/08/03 04:50:37;;;;;;;;;;;;;;;-142.75;67.07;77086.06;5079363;28;19938;-79
2021/08/03 04:53:02;;;;;;;;;;;;;;;-142.75;66.90;77103.78;5079331;28;19916;-79
2021/08/03 04:55:27;;;;;;;;;;;;;;;-142.75;66.87;77097.88;5095610;28;19920;-79
2021/08/03 04:57:53;;;;;;;;;;;;;;;-142.75;66.32;77046.69;5090576;28;19974;-78
2021/08/03 05:00:18;;;;;;;;;;;;;;;-142.75;66.16;77070.31;5086388;28;19921;-79
2021/08/03 05:02:43;;;;;;;;;;;;;;;-142.75;66.08;77019.13;5085215;28;19966;-79
2021/08/03 05:05:09;;;;;;;;;;;;;;;-142.75;65.90;77015.19;5092470;28;19925;-79
2021/08/03 05:07:34;;;;;;;;;;;;;;;-142.75;65.60;76983.69;5089663;28;19916;-78
2021/08/03 05:10:03;;;;;;;;;;;;;;;-142.75;65.34;76995.50;5096501;22;19931;-73
2021/08/03 05:12:28;;;;;;;;;;;;;;;-142.75;65.16;76948.25;5069431;28;20008;-73
2021/08/03 05:14:58;;;;;;;;;;;;;;;-142.75;64.51;76936.44;5069907;28;20433;-73
2021/08/03 05:17:23;;;;;;;;;;;;;;;-142.75;64.04;76902.97;5069967;28;19917;-72
2021/08/03 05:19:50;;;;;;;;;;;;;;;-142.75;63.99;76914.78;5061376;28;19935;-72
2021/08/03 05:22:15;;;;;;;;;;;;;;;-142.75;64.33;76908.88;5053058;28;19917;-73
2021/08/03 05:24:40;;;;;;;;;;;;;;;-142.75;63.98;76920.69;5050154;28;20325;-73
2021/08/03 05:27:06;;;;;;;;;;;;;;;-142.75;63.98;76910.84;5068555;28;19920;-73
2021/08/03 05:29:31;;;;;;;;;;;;;;;-142.75;63.64;76885.25;5068514;28;19916;-73
2021/08/03 05:31:56;;;;;;;;;;;;;;;-142.75;63.23;76869.50;5069605;28;19923;-73
2021/08/03 05:34:21;;;;;;;;;;;;;;;-142.75;63.39;76838.00;5069840;28;20378;-73
2021/08/03 05:36:46;;;;;;;;;;;;;;;-142.75;63.51;76834.06;5069721;28;20321;-73
2021/08/03 05:39:12;;;;;;;;;;;;;;;-142.75;63.21;76810.44;5069828;28;19957;-73
2021/08/03 05:41:37;;;;;;;;;;;;;;;-142.75;63.58;76849.81;5070197;28;19920;-73
2021/08/03 05:44:02;;;;;;;;;;;;;;;-142.75;63.54;76853.75;5068637;28;19924;-74
2021/08/03 05:46:28;;;;;;;;;;;;;;;-142.75;63.50;76838.00;5065676;28;19966;-73
2021/08/03 05:48:53;;;;;;;;;;;;;;;-142.75;63.53;76838.00;5067305;28;19923;-73
2021/08/03 05:51:18;;;;;;;;;;;;;;;-142.75;63.73;76838.00;5069512;28;19917;-73
2021/08/03 05:53:43;;;;;;;;;;;;;;;-142.75;64.12;76832.09;5069554;28;20408;-73
2021/08/03 05:56:08;;;;;;;;;;;;;;;-142.75;63.83;76812.41;5069596;28;19917;-73
2021/08/03 05:58:33;;;;;;;;;;;;;;;-142.75;63.14;76782.91;5055162;28;20417;-73
2021/08/03 06:00:59;;;;;;;;;;;;;;;-142.75;62.61;76721.88;5067034;28;20003;-73
2021/08/03 06:03:24;;;;;;;;;;;;;;;-142.75;61.77;76686.44;5068208;28;20374;-73
2021/08/03 06:05:49;;;;;;;;;;;;;;;-142.75;60.85;76639.19;5069457;28;19923;-73
2021/08/03 06:08:16;;;;;;;;;;;;;;;-142.75;59.50;76566.34;5069282;28;19924;-73
2021/08/03 06:10:44;;;;;;;;;;;;;;;-142.75;58.32;76544.69;5069095;28;19924;-73
2021/08/03 06:13:11;;;;;;;;;;;;;;;-142.75;57.52;76487.63;5059906;28;20386;-73
2021/08/03 06:15:38;;;;;;;;;;;;;;;-142.75;56.96;76491.56;5067422;28;20386;-73
2021/08/03 06:18:07;;;;;;;;;;;;;;;-142.75;56.73;76491.56;5067856;28;19916;-73
2021/08/03 06:20:33;;;;;;;;;;;;;;;-142.75;56.29;76440.38;5068034;28;19970;-74
2021/08/03 06:22:59;;;;;;;;;;;;;;;-142.75;56.51;76454.16;5085046;28;19924;-74
2021/08/03 06:25:24;;;;;;;;;;;;;;;-142.75;55.93;76471.88;5069433;28;19916;-73
2021/08/03 06:27:50;;;;;;;;;;;;;;;-142.75;55.11;76464.00;5069420;28;20019;-73
2021/08/03 06:30:15;;;;;;;;;;;;;;;-142.75;54.74;76450.22;5053794;28;19924;-73
2021/08/03 06:32:42;;;;;;;;;;;;;;;-142.75;54.13;76402.97;5052756;28;19916;-72
2021/08/03 06:35:08;;;;;;;;;;;;;;;-142.75;52.81;76340.00;5071989;28;19921;-73
2021/08/03 06:37:33;;;;;;;;;;;;;;;-142.75;51.93;76265.19;5073013;28;20057;-73
2021/08/03 06:39:58;;;;;;;;;;;;;;;-142.75;50.89;76219.91;5072717;28;20383;-73
2021/08/03 06:42:42;;;;;;;;;;;;;;;-142.75;49.96;76143.16;5073528;28;19923;-73
2021/08/03 06:45:11;;;;;;;;;;;;;;;-142.75;48.75;76052.63;5072980;28;19939;-74
2021/08/03 06:47:56;;;;;;;;;;;;;;;-142.75;47.31;75971.91;5072923;28;19936;-74
2021/08/03 06:50:24;;;;;;;;;;;;;;;-142.75;46.23;75879.41;5056229;28;19916;-74
2021/08/03 06:52:50;;;;;;;;;;;;;;;-142.75;44.45;75781.00;5070792;28;20026;-74
2021/08/03 06:55:15;;;;;;;;;;;;;;;-142.75;43.83;75676.69;5072750;28;20181;-73
2021/08/03 06:57:44;;;;;;;;;;;;;;;-142.75;42.60;75633.41;5072617;28;19923;-72
2021/08/03 07:00:10;;;;;;;;;;;;;;;-142.75;41.48;75590.13;5070991;28;19927;-74
2021/08/03 07:02:37;;;;;;;;;;;;;;;-142.75;40.80;75625.53;5062764;28;19932;-73
2021/08/03 07:05:06;;;;;;;;;;;;;;;-142.75;42.36;75706.22;5052786;28;19924;-73
2021/08/03 07:07:32;;;;;;;;;;;;;;;-142.75;42.95;75745.59;5052150;28;20007;-73
2021/08/03 07:09:58;;;;;;;;;;;;;;;-142.75;43.61;75662.94;5065455;28;19917;-73
2021/08/03 07:12:24;;;;;;;;;;;;;;;-142.75;42.30;75560.59;5073345;28;20362;-74
2021/08/03 07:14:49;;;;;;;;;;;;;;;-142.75;41.14;75536.97;5059484;28;19924;-74
2021/08/03 07:17:15;;;;;;;;;;;;;;;-142.75;40.60;75450.38;5067017;28;20300;-77
2021/08/03 07:19:40;;;;;;;;;;;;;;;-142.75;39.51;75383.47;5058126;28;19975;-75
2021/08/03 07:22:10;;;;;;;;;;;;;;;-142.75;39.23;75420.88;5053317;28;19967;-76
2021/08/03 07:24:37;;;;;;;;;;;;;;;-142.75;38.92;75468.09;5070176;28;19970;-75
2021/08/03 07:27:02;;;;;;;;;;;;;;;-142.75;40.19;75574.38;5064241;28;19923;-73
2021/08/03 07:29:27;;;;;;;;;;;;;;;-142.75;40.29;75611.75;5063303;28;19928;-76
2021/08/03 07:31:52;;;;;;;;;;;;;;;-142.75;41.27;75536.97;5058234;28;20379;-74
2021/08/03 07:34:18;;;;;;;;;;;;;;;-142.75;40.04;75454.31;5062234;28;19940;-73
2021/08/03 07:36:43;;;;;;;;;;;;;;;-142.75;39.04;75324.44;5062344;28;20304;-75
2021/08/03 07:39:09;;;;;;;;;;;;;;;-142.75;37.29;75273.28;5070549;28;20005;-75
2021/08/03 07:41:34;;;;;;;;;;;;;;;-142.75;36.72;75350.03;5059570;28;19923;-74
2021/08/03 07:44:00;;;;;;;;;;;;;;;-142.75;37.56;75300.81;5062634;28;19923;-74
2021/08/03 07:46:25;;;;;;;;;;;;;;;-142.75;37.51;75405.13;5064199;28;19932;-75
2021/08/03 07:48:50;;;;;;;;;;;;;;;-142.75;38.69;75568.47;5070630;28;19916;-75
2021/08/03 07:51:16;;;;;;;;;;;;;;;-142.75;40.93;75753.47;5072030;28;20469;-74
2021/08/03 07:53:41;;;;;;;;;;;;;;;-142.75;42.20;75861.69;5072968;28;19921;-76
2021/08/03 07:56:06;;;;;;;;;;;;;;;-142.75;41.91;75765.25;5066735;28;19916;-74
2021/08/03 07:58:32;;;;;;;;;;;;;;;-142.75;40.23;75706.22;5073555;28;19916;-75
2021/08/03 08:00:57;;;;;;;;;;;;;;;-142.75;41.14;75723.94;5073841;28;20425;-74
2021/08/03 08:03:22;;;;;;;;;;;;;;;-142.75;42.32;75893.19;5073793;28;19962;-74
2021/08/03 08:05:47;;;;;;;;;;;;;;;-142.75;44.50;76011.28;5061560;28;20568;-75
2021/08/03 08:08:12;;;;;;;;;;;;;;;-142.75;45.84;76125.44;5072401;28;19916;-73
2021/08/03 08:10:37;;;;;;;;;;;;;;;-142.75;46.62;76070.34;5071932;28;20435;-74
2021/08/03 08:13:03;;;;;;;;;;;;;;;-142.75;46.24;75979.78;5074809;28;19993;-75
2021/08/03 08:15:28;;;;;;;;;;;;;;;-142.75;44.98;75845.97;5073862;28;19917;-75
2021/08/03 08:17:54;;;;;;;;;;;;;;;-142.75;42.29;75733.78;5072376;28;19917;-75
2021/08/03 08:20:19;;;;;;;;;;;;;;;-142.75;42.67;75643.25;5088992;28;19927;-76
2021/08/03 08:22:44;;;;;;;;;;;;;;;-142.75;39.68;75617.66;5073447;28;19920;-75
2021/08/03 08:25:10;;;;;;;;;;;;;;;-142.75;40.54;75590.13;5073910;28;20448;-74
2021/08/03 08:27:39;;;;;;;;;;;;;;;-142.75;39.79;75479.91;5063398;28;19917;-75
2021/08/03 08:30:05;;;;;;;;;;;;;;;-142.75;36.40;75491.72;5067747;28;19925;-76
2021/08/03 08:32:30;;;;;;;;;;;;;;;-142.75;37.98;75479.91;5072750;28;19916;-75
2021/08/03 08:34:55;;;;;;;;;;;;;;;-142.75;36.74;75464.16;5070995;28;19924;-75
2021/08/03 08:37:20;;;;;;;;;;;;;;;-142.75;37.67;75336.25;5066872;28;20015;-74
2021/08/03 08:39:46;;;;;;;;;;;;;;;-142.75;34.81;75271.31;5072033;28;20402;-75
2021/08/03 08:42:11;;;;;;;;;;;;;;;-142.75;36.09;75133.56;5059753;28;19916;-73
2021/08/03 08:44:37;;;;;;;;;;;;;;;-142.75;34.10;74991.88;5072039;28;19955;-75
2021/08/03 08:47:06;;;;;;;;;;;;;;;-142.75;32.05;75007.63;5074447;28;19924;-76
2021/08/03 08:49:31;;;;;;;;;;;;;;;-142.75;34.86;75267.38;5057525;28;19936;-74
2021/08/03 08:51:57;;;;;;;;;;;;;;;-142.75;35.59;75454.31;5071571;28;19920;-74
2021/08/03 08:54:22;;;;;;;;;;;;;;;-142.75;39.14;75660.97;5066096;28;19920;-75
2021/08/03 08:56:47;;;;;;;;;;;;;;;-142.75;37.92;75611.75;5075322;28;19916;-74
2021/08/03 08:59:12;;;;;;;;;;;;;;;-142.75;38.94;75509.44;5057883;28;19916;-74
2021/08/03 09:01:38;;;;;;;;;;;;;;;-142.75;38.87;75531.06;5073968;28;20404;-74
2021/08/03 09:04:04;;;;;;;;;;;;;;;-142.75;38.44;75296.88;5056031;28;19917;-73
2021/08/03 09:06:30;;;;;;;;;;;;;;;-142.75;35.25;75226.06;5069087;28;20397;-75
2021/08/03 09:08:55;;;;;;;;;;;;;;;-142.75;34.26;75228.00;5074197;28;19917;-74
2021/08/03 09:11:21;;;;;;;;;;;;;;;-142.75;33.71;75082.41;5054987;28;19917;-75
2021/08/03 09:13:56;;;;;;;;;;;;;;;-142.75;35.18;75068.63;5076102;28;19924;-75
2021/08/03 09:16:23;;;;;;;;;;;;;;;-142.75;35.83;75168.97;5072558;28;19920;-75
2021/08/03 09:18:49;;;;;;;;;;;;;;;-142.75;33.94;74987.94;5074749;28;21381;-75
2021/08/03 09:21:19;;;;;;;;;;;;;;;-142.75;32.72;75031.25;5075134;28;19921;-73
2021/08/03 09:23:50;;;;;;;;;;;;;;;-142.75;33.01;75135.53;5068776;28;19916;-75
2021/08/03 09:26:16;;;;;;;;;;;;;;;-142.75;36.11;75470.06;5058062;28;20410;-75
2021/08/03 09:28:57;;;;;;;;;;;;;;;-142.75;37.04;75521.22;5076146;28;19916;-74
2021/08/03 09:31:23;;;;;;;;;;;;;;;-142.75;38.18;75594.06;5067793;28;19928;-76
2021/08/03 09:33:48;;;;;;;;;;;;;;;-142.75;37.83;75554.69;5055296;28;19929;-75
2021/08/03 09:36:13;;;;;;;;;;;;;;;-142.75;37.22;75436.59;5058441;28;19916;-75
2021/08/03 09:38:38;;;;;;;;;;;;;;;-142.75;36.11;75385.44;5071921;28;19924;-76
2021/08/03 09:41:08;;;;;;;;;;;;;;;-142.75;36.25;75216.22;5091007;28;19922;-75
2021/08/03 09:43:33;;;;;;;;;;;;;;;-142.75;34.60;75210.31;5059987;28;20007;-75
2021/08/03 09:46:00;;;;;;;;;;;;;;;-142.75;34.59;75149.31;5055801;28;19964;-75
2021/08/03 09:48:26;;;;;;;;;;;;;;;-142.75;35.00;75106.00;5055199;28;19917;-75
2021/08/03 09:51:04;;;;;;;;;;;;;;;-142.75;32.63;74913.19;5054696;28;19923;-75
2021/08/03 09:53:43;;;;;;;;;;;;;;;-142.75;31.46;74974.19;5074476;28;20007;-75
2021/08/03 09:56:09;;;;;;;;;;;;;;;-142.75;32.75;74924.97;5058837;28;19916;-75
2021/08/03 09:58:53;;;;;;;;;;;;;;;-142.75;30.95;75060.75;5054865;28;19963;-76
2021/08/03 10:01:26;;;;;;;;;;;;;;;-142.75;32.62;74978.13;5059069;28;19924;-75
2021/08/03 10:03:52;;;;;;;;;;;;;;;-142.75;31.02;75056.81;5057818;28;19970;-75
2021/08/03 10:06:20;;;;;;;;;;;;;;;-142.75;32.62;75165.03;5071558;28;19916;-76
2021/08/03 10:08:46;;;;;;;;;;;;;;;-142.75;34.76;75106.00;5078259;28;20386;-76
2021/08/03 10:11:12;;;;;;;;;;;;;;;-142.75;31.40;75003.69;5079269;28;19924;-77
2021/08/03 10:13:37;;;;;;;;;;;;;;;-142.75;33.05;74970.25;5073071;28;19926;-76
2021/08/03 10:16:03;;;;;;;;;;;;;;;-142.75;32.60;74960.41;5068122;28;19920;-75
2021/08/03 10:18:29;;;;;;;;;;;;;;;-142.75;31.63;74905.31;5078537;28;19917;-75
2021/08/03 10:20:54;;;;;;;;;;;;;;;-142.75;34.36;75109.94;5072498;28;20007;-76
2021/08/03 10:23:20;;;;;;;;;;;;;;;-142.75;33.50;75147.34;5075112;28;19930;-78
2021/08/03 10:25:45;;;;;;;;;;;;;;;-142.75;33.55;75206.38;5063678;28;19916;-77
2021/08/03 10:28:22;;;;;;;;;;;;;;;-142.75;34.10;75064.69;5071230;28;20050;-76
2021/08/03 10:30:48;;;;;;;;;;;;;;;-142.75;32.46;74923.03;5067814;28;20306;-74
2021/08/03 10:33:32;;;;;;;;;;;;;;;-142.75;33.55;75046.97;5055683;28;19916;-76
2021/08/03 10:35:59;;;;;;;;;;;;;;;-142.75;33.09;74867.91;5063799;28;19916;-75
2021/08/03 10:38:32;;;;;;;;;;;;;;;-142.75;30.92;74720.34;5073548;28;19925;-76
2021/08/03 10:41:08;;;;;;;;;;;;;;;-142.75;31.14;74600.34;5070303;28;19916;-75
2021/08/03 10:43:33;;;;;;;;;;;;;;;-142.75;29.88;74621.97;5072979;28;19920;-75
2021/08/03 10:46:08;;;;;;;;;;;;;;;-142.75;30.80;74742.00;5071216;28;20003;-74
2021/08/03 10:48:39;;;;;;;;;;;;;;;-142.75;33.45;75198.50;5066797;28;19916;-76
2021/08/03 10:51:13;;;;;;;;;;;;;;;-142.75;35.93;75517.28;5061140;28;19917;-76
2021/08/03 10:53:51;;;;;;;;;;;;;;;-142.75;37.55;75678.66;5072218;28;19927;-75
2021/08/03 10:56:16;;;;;;;;;;;;;;;-142.75;38.11;75550.75;5077935;28;20209;-76
2021/08/03 10:58:41;;;;;;;;;;;;;;;-142.75;36.58;75334.28;5060509;28;20550;-76
2021/08/03 11:01:06;;;;;;;;;;;;;;;-142.75;34.10;75102.06;5065477;28;19970;-75
2021/08/03 11:03:34;;;;;;;;;;;;;;;-142.75;32.14;74984.00;5066917;28;19916;-75
2021/08/03 11:05:59;;;;;;;;;;;;;;;-142.75;30.56;74852.19;5073395;28;19922;-74
2021/08/03 11:08:29;;;;;;;;;;;;;;;-142.75;31.24;74948.59;5072117;28;19916;-74
2021/08/03 11:11:04;;;;;;;;;;;;;;;-142.75;34.33;75098.16;5082780;22;19924;-75
2021/08/03 11:13:44;;;;;;;;;;;;;;;-142.75;30.43;74954.50;5092226;28;19920;-75
2021/08/03 11:16:11;;;;;;;;;;;;;;;-142.75;33.11;75192.59;5090198;28;19954;-75
2021/08/03 11:18:41;;;;;;;;;;;;;;;-142.75;36.49;75389.38;5092788;28;20290;-76
2021/08/03 11:21:06;;;;;;;;;;;;;;;-142.75;34.91;75416.94;5093711;28;19916;-76
2021/08/03 11:23:51;;;;;;;;;;;;;;;-142.75;35.04;75456.28;5080068;28;19920;-75
2021/08/03 11:26:19;;;;;;;;;;;;;;;-142.75;36.35;75456.28;5093731;28;19916;-74
2021/08/03 11:28:54;;;;;;;;;;;;;;;-142.75;36.99;75477.94;5084154;28;19916;-75
2021/08/03 11:31:20;;;;;;;;;;;;;;;-142.75;34.74;75538.94;5073774;28;19923;-75
2021/08/03 11:33:45;;;;;;;;;;;;;;;-142.75;37.09;75682.59;5088312;28;19923;-76
2021/08/03 11:36:10;;;;;;;;;;;;;;;-142.75;36.71;75615.69;5089301;28;20386;-74
2021/08/03 11:38:35;;;;;;;;;;;;;;;-142.75;38.46;75672.78;5072184;28;19955;-76
2021/08/03 11:41:00;;;;;;;;;;;;;;;-142.75;36.71;75623.56;5072821;28;20331;-75
2021/08/03 11:43:26;;;;;;;;;;;;;;;-142.75;36.91;75607.81;5074858;28;19917;-76
2021/08/03 11:45:51;;;;;;;;;;;;;;;-142.75;36.86;75688.50;5090193;28;19957;-76
2021/08/03 11:48:25;;;;;;;;;;;;;;;-142.75;37.12;75477.94;5073400;28;19916;-75
2021/08/03 11:50:50;;;;;;;;;;;;;;;-142.75;37.34;75568.47;5084905;28;19916;-76
2021/08/03 11:53:16;;;;;;;;;;;;;;;-142.75;37.44;75621.59;5093283;28;19924;-75
2021/08/03 11:56:08;;;;;;;;;;;;;;;-142.75;38.47;75625.53;5091943;28;19916;-72
2021/08/03 11:58:37;;;;;;;;;;;;;;;-142.75;38.02;75570.44;5071672;28;19977;-75
2021/08/03 12:01:05;;;;;;;;;;;;;;;-142.75;37.62;75684.56;5088763;28;20038;-75
2021/08/03 12:03:31;;;;;;;;;;;;;;;-142.75;38.11;75712.13;5083273;28;19963;-75
2021/08/03 12:05:59;;;;;;;;;;;;;;;-142.75;37.57;75816.44;5072779;28;20592;-75
2021/08/03 12:08:31;;;;;;;;;;;;;;;-142.75;40.51;75779.03;5072835;28;20012;-75
2021/08/03 12:10:56;;;;;;;;;;;;;;;-142.75;38.79;75759.38;5071129;28;19916;-74
2021/08/03 12:13:29;;;;;;;;;;;;;;;-142.75;38.72;75739.69;5072732;28;19921;-74
2021/08/03 12:15:55;;;;;;;;;;;;;;;-142.75;37.82;75747.56;5076831;28;20416;-75
2021/08/03 12:18:20;;;;;;;;;;;;;;;-142.75;38.18;75741.66;5082540;28;20290;-75
2021/08/03 12:20:48;;;;;;;;;;;;;;;-142.75;39.12;75739.69;5070677;28;19921;-75
2021/08/03 12:23:16;;;;;;;;;;;;;;;-142.75;39.82;75700.31;5080148;28;20332;-75
2021/08/03 12:25:45;;;;;;;;;;;;;;;-142.75;39.09;75718.03;5092700;28;19920;-74
2021/08/03 12:28:10;;;;;;;;;;;;;;;-142.75;39.83;75753.47;5092476;28;19970;-73